createdAt,value
2022-11-23T00:01:19.626Z,4.14
2022-11-23T00:03:48.742Z,4.07
2022-11-23T00:06:16.645Z,3.90
2022-11-23T00:08:43.735Z,4.07
2022-11-23T00:11:11.012Z,4.05
2022-11-23T00:13:42.966Z,3.51
2022-11-23T00:16:24.066Z,3.97
2022-11-23T00:19:01.329Z,4.16
2022-11-23T00:21:30.335Z,4.00
2022-11-23T00:23:57.080Z,3.79
2022-11-23T00:26:24.493Z,3.35
2022-11-23T00:28:51.274Z,3.58
2022-11-23T00:31:20.628Z,3.79
2022-11-23T00:33:54.115Z,3.94
2022-11-23T00:36:23.081Z,3.89
2022-11-23T00:38:50.781Z,3.70
2022-11-23T00:41:18.670Z,4.32
2022-11-23T00:43:45.808Z,3.98
2022-11-23T00:46:18.528Z,4.27
2022-11-23T00:48:47.421Z,4.35
2022-11-23T00:51:27.389Z,4.43
2022-11-23T00:53:54.719Z,4.38
2022-11-23T00:56:24.071Z,4.24
2022-11-23T00:58:52.301Z,4.21
2022-11-23T01:01:22.798Z,4.22
2022-11-23T01:03:52.876Z,4.00
2022-11-23T01:06:30.377Z,3.96
2022-11-23T01:09:00.536Z,3.87
2022-11-23T01:11:29.699Z,3.83
2022-11-23T01:13:56.794Z,3.71
2022-11-23T01:16:26.581Z,3.79
2022-11-23T01:19:01.579Z,3.79
2022-11-23T01:21:30.602Z,3.71
2022-11-23T01:23:59.966Z,3.80
2022-11-23T01:26:28.718Z,3.85
2022-11-23T01:28:59.491Z,3.86
2022-11-23T01:31:29.423Z,4.01
2022-11-23T01:33:59.253Z,3.88
2022-11-23T01:36:35.995Z,3.90
2022-11-23T01:39:08.767Z,3.98
2022-11-23T01:41:50.527Z,4.02
2022-11-23T01:44:33.893Z,4.19
2022-11-23T01:47:09.219Z,4.24
2022-11-23T01:49:52.830Z,4.21
2022-11-23T01:52:25.035Z,4.12
2022-11-23T01:54:55.765Z,4.10
2022-11-23T01:57:51.260Z,4.40
2022-11-23T02:00:45.763Z,4.30
2022-11-23T02:03:18.600Z,4.35
2022-11-23T02:05:49.874Z,4.45
2022-11-23T02:08:27.782Z,4.39
2022-11-23T02:11:00.290Z,4.48
2022-11-23T02:13:29.319Z,4.39
2022-11-23T02:15:59.799Z,4.45
2022-11-23T02:18:37.224Z,4.61
2022-11-23T02:21:05.329Z,4.60
2022-11-23T02:24:00.956Z,4.70
2022-11-23T02:26:37.797Z,4.67
2022-11-23T02:29:12.048Z,4.51
2022-11-23T02:31:39.187Z,4.54
2022-11-23T02:34:06.098Z,4.69
2022-11-23T02:36:45.842Z,4.61
2022-11-23T02:39:13.077Z,4.63
2022-11-23T02:41:54.834Z,4.89
2022-11-23T02:44:37.406Z,4.64
2022-11-23T02:47:20.940Z,4.96
2022-11-23T02:50:19.808Z,4.98
2022-11-23T02:52:54.523Z,4.78
2022-11-23T02:55:28.467Z,4.76
2022-11-23T02:57:57.446Z,4.81
2022-11-23T03:00:27.199Z,5.07
2022-11-23T03:02:53.953Z,4.64
2022-11-23T03:05:20.797Z,4.77
2022-11-23T03:07:51.594Z,4.73
2022-11-23T03:10:19.537Z,4.96
2022-11-23T03:12:49.116Z,4.91
2022-11-23T03:15:16.040Z,4.79
2022-11-23T03:17:43.206Z,5.01
2022-11-23T03:20:12.800Z,4.79
2022-11-23T03:22:43.020Z,4.75
2022-11-23T03:25:10.905Z,4.77
2022-11-23T03:27:39.558Z,4.63
2022-11-23T03:30:09.108Z,4.70
2022-11-23T03:32:38.613Z,4.65
2022-11-23T03:35:06.316Z,4.55
2022-11-23T03:37:35.276Z,4.75
2022-11-23T03:40:02.767Z,4.87
2022-11-23T03:42:48.368Z,4.93
2022-11-23T03:45:15.835Z,5.16
2022-11-23T03:47:42.540Z,4.96
2022-11-23T03:50:09.787Z,4.94
2022-11-23T03:52:37.253Z,5.05
2022-11-23T03:55:04.386Z,5.17
2022-11-23T03:57:31.302Z,5.08
2022-11-23T04:00:00.742Z,5.53
2022-11-23T04:02:27.496Z,5.62
2022-11-23T04:05:07.364Z,5.74
2022-11-23T04:08:06.539Z,5.74
2022-11-23T04:10:33.343Z,5.73
2022-11-23T04:13:13.977Z,5.78
2022-11-23T04:15:40.871Z,5.96
2022-11-23T04:18:09.092Z,5.68
2022-11-23T04:20:38.168Z,5.98
2022-11-23T04:23:07.134Z,5.88
2022-11-23T04:25:38.229Z,5.99
2022-11-23T04:28:06.258Z,6.14
2022-11-23T04:30:32.963Z,6.17
2022-11-23T04:33:00.820Z,6.09
2022-11-23T04:35:27.913Z,6.15
2022-11-23T04:37:55.138Z,6.21
2022-11-23T04:40:25.395Z,6.34
2022-11-23T04:43:02.312Z,6.37
2022-11-23T04:45:32.820Z,6.59
2022-11-23T04:48:04.879Z,6.75
2022-11-23T04:50:35.334Z,6.30
2022-11-23T04:53:03.986Z,6.30
2022-11-23T04:55:37.792Z,6.45
2022-11-23T04:58:04.797Z,6.71
2022-11-23T05:00:34.135Z,6.62
2022-11-23T05:03:03.091Z,6.55
2022-11-23T05:05:33.020Z,6.56
2022-11-23T05:08:01.947Z,6.79
2022-11-23T05:10:46.501Z,6.69
2022-11-23T05:13:13.977Z,6.67
2022-11-23T05:15:40.726Z,6.54
2022-11-23T05:18:08.391Z,6.80
2022-11-23T05:20:38.390Z,6.89
2022-11-23T05:23:05.190Z,6.98
2022-11-23T05:25:43.016Z,6.69
2022-11-23T05:28:42.652Z,6.86
2022-11-23T05:34:24.254Z,6.77
2022-11-23T05:42:15.201Z,6.94
2022-11-23T05:44:42.664Z,7.42
2022-11-23T05:47:17.704Z,6.94
2022-11-23T05:49:44.464Z,6.88
2022-11-23T05:52:12.968Z,7.29
2022-11-23T05:54:39.916Z,7.10
2022-11-23T05:57:12.401Z,7.06
2022-11-23T05:59:40.910Z,6.86
2022-11-23T06:02:11.219Z,7.04
2022-11-23T06:04:37.936Z,7.13
2022-11-23T06:07:13.379Z,6.85
2022-11-23T06:10:00.098Z,7.29
2022-11-23T06:12:34.561Z,7.60
2022-11-23T06:15:03.814Z,7.01
2022-11-23T06:17:31.069Z,7.08
2022-11-23T06:20:02.776Z,7.00
2022-11-23T06:22:29.944Z,7.18
2022-11-23T06:25:02.444Z,7.12
2022-11-23T06:27:32.139Z,7.08
2022-11-23T06:30:01.358Z,7.39
2022-11-23T06:32:31.002Z,7.44
2022-11-23T06:35:00.816Z,7.34
2022-11-23T06:37:30.865Z,7.33
2022-11-23T06:39:57.718Z,7.28
2022-11-23T06:42:41.294Z,7.45
2022-11-23T06:45:18.397Z,7.47
2022-11-23T06:47:49.693Z,7.29
2022-11-23T06:50:17.733Z,7.52
2022-11-23T06:52:46.194Z,7.54
2022-11-23T06:55:15.987Z,7.55
2022-11-23T06:57:42.847Z,7.41
2022-11-23T07:00:12.011Z,7.40
2022-11-23T07:02:38.870Z,7.47
2022-11-23T07:05:06.377Z,7.36
2022-11-23T07:07:33.282Z,7.27
2022-11-23T07:10:08.037Z,7.15
2022-11-23T07:12:55.149Z,7.30
2022-11-23T07:15:23.464Z,7.47
2022-11-23T07:17:51.876Z,7.12
2022-11-23T07:20:28.357Z,7.38
2022-11-23T07:23:07.115Z,7.45
2022-11-23T07:25:36.097Z,7.51
2022-11-23T07:28:04.419Z,7.26
2022-11-23T07:30:33.540Z,7.42
2022-11-23T07:33:06.080Z,7.52
2022-11-23T07:35:33.073Z,7.24
2022-11-23T07:38:00.774Z,7.51
2022-11-23T07:40:30.425Z,7.57
2022-11-23T07:43:04.094Z,7.74
2022-11-23T07:45:31.282Z,7.67
2022-11-23T07:48:05.129Z,7.59
2022-11-23T07:50:32.552Z,7.42
2022-11-23T07:52:59.234Z,7.34
2022-11-23T07:55:26.160Z,7.42
2022-11-23T07:57:54.957Z,7.48
2022-11-23T08:00:29.755Z,7.78
2022-11-23T08:05:47.771Z,7.51
2022-11-23T08:08:14.831Z,7.62
2022-11-23T08:10:46.175Z,7.58
2022-11-23T08:13:15.400Z,7.38
2022-11-23T08:15:48.846Z,7.78
2022-11-23T08:18:20.277Z,7.77
2022-11-23T08:20:50.448Z,7.69
2022-11-23T08:23:17.209Z,7.53
2022-11-23T08:25:43.979Z,7.48
2022-11-23T08:28:11.104Z,7.85
2022-11-23T08:30:38.423Z,7.77
2022-11-23T08:33:09.250Z,7.73
2022-11-23T08:35:37.055Z,7.93
2022-11-23T08:38:11.050Z,8.17
2022-11-23T08:40:38.425Z,8.41
2022-11-23T08:43:05.945Z,8.30
2022-11-23T08:45:32.696Z,8.36
2022-11-23T08:48:03.799Z,7.99
2022-11-23T08:50:33.237Z,7.94
2022-11-23T08:53:00.654Z,8.07
2022-11-23T08:55:28.644Z,8.15
2022-11-23T08:57:57.346Z,8.10
2022-11-23T09:00:25.318Z,8.52
2022-11-23T09:02:52.409Z,8.43
2022-11-23T09:05:19.117Z,8.49
2022-11-23T09:07:45.943Z,8.41
2022-11-23T09:10:17.992Z,8.29
2022-11-23T09:12:46.345Z,8.40
2022-11-23T09:15:13.154Z,8.92
2022-11-23T09:17:42.530Z,8.64
2022-11-23T09:20:10.383Z,9.10
2022-11-23T09:22:37.553Z,8.58
2022-11-23T09:25:05.135Z,8.44
2022-11-23T09:27:31.770Z,8.64
2022-11-23T09:29:58.581Z,8.59
2022-11-23T09:32:25.310Z,8.59
2022-11-23T09:34:51.997Z,8.86
2022-11-23T09:37:18.901Z,8.89
2022-11-23T09:39:45.705Z,8.56
2022-11-23T09:42:40.591Z,9.39
2022-11-23T09:45:19.179Z,8.92
2022-11-23T09:47:51.791Z,9.02
2022-11-23T09:50:28.504Z,9.03
2022-11-23T09:52:55.292Z,8.88
2022-11-23T09:55:34.598Z,9.01
2022-11-23T09:58:04.996Z,9.21
2022-11-23T10:00:44.818Z,9.18
2022-11-23T10:03:17.067Z,9.30
2022-11-23T10:05:57.786Z,8.98
2022-11-23T10:08:45.939Z,9.05
2022-11-23T10:11:30.912Z,8.97
2022-11-23T10:14:24.046Z,8.95
2022-11-23T10:17:00.683Z,9.15
2022-11-23T10:22:49.922Z,8.98
2022-11-23T10:25:19.463Z,9.20
2022-11-23T10:27:48.916Z,9.06
2022-11-23T10:30:18.178Z,9.02
2022-11-23T10:33:13.728Z,9.26
2022-11-23T10:35:42.931Z,9.39
2022-11-23T10:38:18.178Z,9.31
2022-11-23T10:41:12.696Z,9.31
2022-11-23T10:44:02.835Z,9.62
2022-11-23T10:46:36.785Z,9.50
2022-11-23T10:49:21.122Z,9.73
2022-11-23T10:51:54.252Z,10.01
2022-11-23T10:54:27.671Z,9.81
2022-11-23T10:56:55.296Z,9.73
2022-11-23T10:59:42.078Z,10.41
2022-11-23T11:02:21.818Z,10.41
2022-11-23T11:04:55.820Z,10.22
2022-11-23T11:07:30.913Z,10.25
2022-11-23T11:10:03.381Z,10.28
2022-11-23T11:12:34.633Z,10.24
2022-11-23T11:15:21.636Z,10.43
2022-11-23T11:18:01.755Z,10.06
2022-11-23T11:20:28.404Z,10.13
2022-11-23T11:23:20.390Z,9.93
2022-11-23T11:25:51.408Z,10.10
2022-11-23T11:28:29.721Z,10.60
2022-11-23T11:31:15.220Z,10.61
2022-11-23T11:34:02.793Z,10.74
2022-11-23T11:36:40.256Z,10.95
2022-11-23T11:39:29.251Z,10.90
2022-11-23T11:42:02.075Z,10.81
2022-11-23T11:44:36.892Z,10.85
2022-11-23T11:47:13.344Z,11.05
2022-11-23T11:49:46.770Z,11.04
2022-11-23T11:52:27.907Z,11.30
2022-11-23T11:55:33.387Z,10.93
2022-11-23T11:58:10.129Z,11.20
2022-11-23T12:00:44.791Z,10.73
2022-11-23T12:03:27.066Z,10.98
2022-11-23T12:05:58.662Z,10.73
2022-11-23T12:08:43.850Z,11.03
2022-11-23T12:11:12.776Z,10.91
2022-11-23T12:13:43.308Z,11.01
2022-11-23T12:16:36.941Z,11.27
2022-11-23T12:19:43.174Z,11.31
2022-11-23T12:22:26.691Z,11.66
2022-11-23T12:25:19.375Z,11.53
2022-11-23T12:28:08.049Z,11.45
2022-11-23T12:31:06.948Z,11.31
2022-11-23T12:34:01.156Z,11.55
2022-11-23T12:36:37.423Z,11.48
2022-11-23T12:39:25.712Z,11.27
2022-11-23T12:42:27.306Z,11.38
2022-11-23T12:45:06.173Z,11.56
2022-11-23T12:47:54.473Z,11.58
2022-11-23T12:50:35.496Z,11.96
2022-11-23T12:53:06.592Z,11.53
2022-11-23T12:55:53.319Z,11.53
2022-11-23T12:58:29.113Z,11.83
2022-11-23T13:01:29.451Z,12.24
2022-11-23T13:04:20.382Z,12.12
2022-11-23T13:07:31.393Z,12.50
2022-11-23T13:10:12.865Z,12.19
2022-11-23T13:13:03.146Z,11.91
2022-11-23T13:15:46.659Z,12.35
2022-11-23T13:18:27.931Z,12.24
2022-11-23T13:21:00.700Z,12.12
2022-11-23T13:23:27.556Z,12.18
2022-11-23T13:26:38.470Z,12.38
2022-11-23T13:29:51.514Z,12.00
2022-11-23T13:32:40.284Z,12.51
2022-11-23T13:35:16.124Z,12.53
2022-11-23T13:37:58.071Z,12.82
2022-11-23T13:40:36.903Z,13.67
2022-11-23T13:43:20.715Z,14.09
2022-11-23T13:46:19.541Z,14.21
2022-11-23T13:48:56.649Z,14.29
2022-11-23T13:51:27.648Z,15.59
2022-11-23T13:54:03.668Z,16.23
2022-11-23T13:56:32.273Z,16.32
2022-11-23T13:59:23.569Z,15.99
2022-11-23T14:02:27.046Z,16.01
2022-11-23T14:05:15.608Z,15.65
2022-11-23T14:07:46.247Z,15.30
2022-11-23T14:10:24.232Z,14.84
2022-11-23T14:13:05.270Z,14.48
2022-11-23T14:15:39.051Z,14.12
2022-11-23T14:18:25.957Z,13.77
2022-11-23T14:20:59.961Z,13.83
2022-11-23T14:23:44.789Z,13.80
2022-11-23T14:26:28.883Z,13.26
2022-11-23T14:29:32.829Z,12.98
2022-11-23T14:32:45.067Z,12.50
2022-11-23T14:35:32.539Z,12.31
2022-11-23T14:38:20.945Z,12.41
2022-11-23T14:41:06.874Z,12.10
2022-11-23T14:43:35.903Z,11.64
2022-11-23T14:46:04.486Z,11.79
2022-11-23T14:48:33.733Z,11.58
2022-11-23T14:51:10.042Z,11.41
2022-11-23T14:53:46.444Z,11.24
2022-11-23T14:56:31.921Z,11.30
2022-11-23T14:59:18.225Z,11.05
2022-11-23T15:01:52.503Z,10.71
2022-11-23T15:04:34.099Z,10.79
2022-11-23T15:07:08.541Z,10.64
2022-11-23T15:09:55.594Z,10.41
2022-11-23T15:12:45.603Z,10.65
2022-11-23T15:15:52.200Z,10.72
2022-11-23T15:18:41.164Z,10.52
2022-11-23T15:21:11.010Z,10.45
2022-11-23T15:23:42.880Z,10.21
2022-11-23T15:26:46.901Z,10.27
2022-11-23T15:29:35.603Z,10.02
2022-11-23T15:32:29.241Z,9.62
2022-11-23T15:34:56.576Z,9.89
2022-11-23T15:37:25.167Z,9.41
2022-11-23T15:39:53.777Z,9.40
2022-11-23T15:42:23.991Z,9.43
2022-11-23T15:44:52.303Z,9.31
2022-11-23T15:47:27.306Z,9.41
2022-11-23T15:50:05.182Z,9.40
2022-11-23T15:52:38.287Z,9.34
2022-11-23T15:55:10.027Z,9.17
2022-11-23T15:57:41.576Z,9.13
2022-11-23T16:00:25.681Z,9.10
2022-11-23T16:02:53.050Z,8.82
2022-11-23T16:05:25.472Z,8.97
2022-11-23T16:08:15.051Z,9.06
2022-11-23T16:10:54.766Z,9.09
2022-11-23T16:13:38.512Z,8.99
2022-11-23T16:16:21.986Z,8.80
2022-11-23T16:18:56.916Z,8.37
2022-11-23T16:21:25.341Z,8.43
2022-11-23T16:23:56.593Z,8.73
2022-11-23T16:26:34.260Z,8.70
2022-11-23T16:29:02.232Z,8.32
2022-11-23T16:31:35.611Z,8.20
2022-11-23T16:34:09.378Z,8.09
2022-11-23T16:36:36.175Z,8.26
2022-11-23T16:39:05.741Z,8.19
2022-11-23T16:41:33.050Z,8.14
2022-11-23T16:43:59.828Z,8.10
2022-11-23T16:46:26.684Z,8.32
2022-11-23T16:48:55.607Z,8.26
2022-11-23T16:51:22.331Z,8.23
2022-11-23T16:56:36.414Z,8.08
2022-11-23T16:59:03.178Z,8.23
2022-11-23T17:01:30.739Z,8.38
2022-11-23T17:03:59.025Z,8.09
2022-11-23T17:06:25.913Z,7.78
2022-11-23T17:09:00.563Z,7.64
2022-11-23T17:14:19.221Z,7.26
2022-11-23T17:16:47.252Z,7.10
2022-11-23T17:19:22.782Z,7.51
2022-11-23T17:21:49.574Z,7.20
2022-11-23T17:24:16.350Z,7.26
2022-11-23T17:26:46.698Z,7.35
2022-11-23T17:29:17.857Z,7.39
2022-11-23T17:31:45.635Z,7.41
2022-11-23T17:34:14.446Z,7.51
2022-11-23T17:36:43.018Z,7.36
2022-11-23T17:39:30.067Z,7.67
2022-11-23T17:42:04.990Z,7.66
2022-11-23T17:44:32.045Z,7.72
2022-11-23T17:47:00.327Z,7.51
2022-11-23T17:49:28.477Z,7.64
2022-11-23T17:51:56.025Z,7.78
2022-11-23T17:54:23.954Z,7.63
2022-11-23T17:56:51.709Z,7.45
2022-11-23T17:59:19.145Z,7.58
2022-11-23T18:01:45.866Z,7.56
2022-11-23T18:04:12.755Z,7.53
2022-11-23T18:06:39.400Z,7.43
2022-11-23T18:09:09.060Z,7.60
2022-11-23T18:11:37.954Z,7.71
2022-11-23T18:14:04.936Z,7.56
2022-11-23T18:16:34.307Z,7.66
2022-11-23T18:19:00.999Z,7.80
2022-11-23T18:21:27.759Z,7.64
2022-11-23T18:23:54.470Z,7.73
2022-11-23T18:26:27.191Z,7.57
2022-11-23T18:28:54.254Z,7.11
2022-11-23T18:31:21.648Z,6.75
2022-11-23T18:33:48.414Z,6.68
2022-11-23T18:36:15.263Z,6.79
2022-11-23T18:38:45.021Z,6.98
2022-11-23T18:41:13.343Z,7.10
2022-11-23T18:43:40.005Z,6.92
2022-11-23T18:46:08.253Z,6.67
2022-11-23T18:48:35.021Z,6.60
2022-11-23T18:51:03.228Z,6.80
2022-11-23T18:53:30.580Z,6.78
2022-11-23T18:56:02.640Z,6.87
2022-11-23T18:58:42.027Z,6.67
2022-11-23T19:01:13.101Z,6.60
2022-11-23T19:03:41.789Z,6.48
2022-11-23T19:06:12.021Z,5.82
2022-11-23T19:08:46.948Z,5.59
2022-11-23T19:11:18.067Z,5.49
2022-11-23T19:13:47.154Z,5.69
2022-11-23T19:16:34.030Z,5.71
2022-11-23T19:19:03.615Z,5.63
2022-11-23T19:21:33.395Z,5.65
2022-11-23T19:24:00.655Z,5.56
2022-11-23T19:26:29.476Z,5.39
2022-11-23T19:28:57.034Z,5.31
2022-11-23T19:31:29.324Z,5.61
2022-11-23T19:33:58.449Z,5.80
2022-11-23T19:36:25.565Z,5.93
2022-11-23T19:38:56.656Z,6.27
2022-11-23T19:41:29.543Z,6.39
2022-11-23T19:43:59.076Z,6.62
2022-11-23T19:46:26.635Z,6.71
2022-11-23T19:48:58.395Z,7.17
2022-11-23T19:51:26.025Z,6.85
2022-11-23T19:53:52.682Z,7.18
2022-11-23T19:56:22.724Z,6.89
2022-11-23T19:58:54.337Z,7.03
2022-11-23T20:01:22.820Z,6.86
2022-11-23T20:03:52.117Z,6.80
2022-11-23T20:06:29.820Z,6.91
2022-11-23T20:09:02.050Z,6.84
2022-11-23T20:11:30.631Z,6.85
2022-11-23T20:14:01.402Z,6.94
2022-11-23T20:16:31.474Z,6.49
2022-11-23T20:19:07.023Z,6.71
2022-11-23T20:21:34.600Z,6.78
2022-11-23T20:24:11.553Z,7.10
2022-11-23T20:26:39.051Z,7.06
2022-11-23T20:29:07.115Z,7.15
2022-11-23T20:31:35.391Z,7.09
2022-11-23T20:34:06.442Z,6.98
2022-11-23T20:36:36.023Z,6.94
2022-11-23T20:39:05.599Z,6.90
2022-11-23T20:41:37.995Z,6.98
2022-11-23T20:44:14.892Z,7.07
2022-11-23T20:49:30.118Z,6.45
2022-11-23T20:51:59.777Z,6.19
2022-11-23T20:54:29.320Z,6.32
2022-11-23T20:56:58.181Z,6.36
2022-11-23T20:59:24.964Z,6.46
2022-11-23T21:01:52.184Z,6.43
2022-11-23T21:04:18.955Z,6.51
2022-11-23T21:06:45.715Z,6.25
2022-11-23T21:09:12.524Z,6.26
2022-11-23T21:11:57.925Z,6.28
2022-11-23T21:14:28.151Z,6.15
2022-11-23T21:16:58.716Z,6.28
2022-11-23T21:19:29.946Z,6.25
2022-11-23T21:21:57.800Z,6.34
2022-11-23T21:24:25.529Z,6.50
2022-11-23T21:26:52.287Z,6.26
2022-11-23T21:29:20.751Z,6.10
2022-11-23T21:31:49.138Z,6.08
2022-11-23T21:34:19.053Z,5.83
2022-11-23T21:36:45.884Z,5.68
2022-11-23T21:39:13.657Z,5.76
2022-11-23T21:41:40.763Z,5.80
2022-11-23T21:44:08.792Z,5.71
2022-11-23T21:46:39.864Z,5.75
2022-11-23T21:49:06.959Z,5.98
2022-11-23T21:51:34.997Z,5.90
2022-11-23T21:54:15.628Z,6.06
2022-11-23T21:56:44.555Z,6.13
2022-11-23T21:59:12.509Z,6.11
2022-11-23T22:01:43.307Z,5.90
2022-11-23T22:04:12.331Z,5.85
2022-11-23T22:06:40.604Z,5.93
2022-11-23T22:09:09.563Z,5.71
2022-11-23T22:11:37.785Z,5.82
2022-11-23T22:14:11.949Z,5.64
2022-11-23T22:16:43.832Z,5.53
2022-11-23T22:19:12.618Z,5.39
2022-11-23T22:21:40.723Z,5.27
2022-11-23T22:24:12.949Z,5.46
2022-11-23T22:26:39.662Z,5.11
2022-11-23T22:29:06.880Z,5.07
2022-11-23T22:31:34.838Z,5.12
2022-11-23T22:34:06.838Z,5.45
2022-11-23T22:36:33.649Z,5.56
2022-11-23T22:39:03.074Z,5.65
2022-11-23T22:41:34.518Z,5.64
2022-11-23T22:44:01.378Z,5.64
2022-11-23T22:46:28.383Z,5.81
2022-11-23T22:48:59.546Z,5.93
2022-11-23T22:51:28.122Z,5.93
2022-11-23T22:53:55.940Z,5.95
2022-11-23T22:56:22.883Z,6.23
2022-11-23T22:58:49.960Z,5.93
2022-11-23T23:01:20.223Z,6.11
2022-11-23T23:03:50.680Z,6.29
2022-11-23T23:06:21.936Z,6.14
2022-11-23T23:08:56.607Z,6.37
2022-11-23T23:11:25.051Z,6.27
2022-11-23T23:13:52.475Z,6.13
2022-11-23T23:16:19.640Z,6.21
2022-11-23T23:18:46.558Z,6.29
2022-11-23T23:21:18.891Z,6.38
2022-11-23T23:23:48.587Z,6.14
2022-11-23T23:26:18.665Z,6.19
2022-11-23T23:28:46.998Z,6.25
2022-11-23T23:31:16.324Z,5.72
2022-11-23T23:33:44.414Z,5.53
2022-11-23T23:36:22.672Z,6.05
2022-11-23T23:38:58.525Z,5.96
2022-11-23T23:41:25.669Z,5.80
2022-11-23T23:43:52.604Z,5.73
2022-11-23T23:46:19.651Z,5.74
2022-11-23T23:48:46.881Z,5.77
2022-11-23T23:51:15.083Z,5.93
2022-11-23T23:53:43.250Z,5.94
2022-11-23T23:56:27.975Z,6.12
2022-11-23T23:58:56.914Z,5.98
